• Join FlightAware (Why Join?)
  • Login
  • US Flag 
Rudolph Flight #1: Arrived! 
10:09AM EST


 

Airport Tracker/Info


-or-


 

Live Flight TrackerFlight Track Log ✈ N23139 ✈ 23-Apr-2013 ✈ KIAH - KDTW

Flight Track Log - Related Links

Times and Time Zones

All times are in EDT time to prevent confusion due to time zone crossing. See the N23139 flight status page for this flight to view local times or setup timezone preferences in your user account.

Time Position Orientation Groundspeed Altitude Reporting Facility
EDT Latitude Longitude Course Direction KTS MPH feet Rate Location/Type
07:06PM 29.9764 -95.2983 30° Northeast 155 178 700  Level Houston Center
07:07PM 29.9947 -95.2672 56° Northeast 194 223 1,900 1,500 Climbing Houston Center
07:08PM 30.0256 -95.2519 23° Northeast 211 243 2,700 1,740 Climbing Houston Center
07:08PM 30.0589 -95.2353 23° Northeast 269 310 3,700 2,280 Climbing Houston Center
07:09PM 30.3273 -95.1946 14° North  Level FlightAware Approximate
07:09PM 30.0922 -95.2189 23° Northeast 250 288 5,100  Level Houston Center
07:09PM 30.1314 -95.2022 20° North 281 323 6,400 2,220 Climbing Houston Center
07:10PM 30.4412 -95.1453 27° Northeast  Level FlightAware Approximate
07:10PM 30.1697 -95.1975 North 288 331 7,400  Level Houston Center
07:11PM 30.5511 -95.0882 30° Northeast  Level FlightAware Approximate
07:11PM 30.2511 -95.1869 North 294 338 9,800  Level Houston Center
07:12PM 30.6545 -95.0137 30° Northeast  Level FlightAware Approximate
07:12PM 30.3378 -95.1758 North 310 357 11,400  Level Houston Center
07:13PM 30.4494 -95.1594 North 351 404 12,700 1,200 Climbing Houston Center
07:14PM 30.5450 -95.1017 28° Northeast 387 445 14,000 1,320 Climbing Houston Center
07:15PM 30.6411 -95.0419 28° Northeast 389 448 15,500 1,440 Climbing Houston Center
07:16PM 30.7381 -94.9819 28° Northeast 394 453 17,100 1,680 Climbing Houston Center
07:17PM 30.8542 -94.9103 28° Northeast 393 452 19,000 1,500 Climbing Houston Center
07:18PM 30.9525 -94.8483 28° Northeast 399 459 20,300 1,200 Climbing Houston Center
07:19PM 31.0539 -94.7853 28° Northeast 411 473 21,500 1,140 Climbing Houston Center
07:20PM 31.1389 -94.7292 29° Northeast 409 471 22,500 1,200 Climbing Fort Worth Center
07:21PM 31.2439 -94.6606 29° Northeast 409 471 23,700 720 Climbing Fort Worth Center
07:22PM 31.3508 -94.5892 30° Northeast 420 483 24,000 120 Climbing Fort Worth Center
07:23PM 31.4578 -94.5153 31° Northeast 454 522 24,000 240 Level Fort Worth Center
07:24PM 31.5708 -94.4361 31° Northeast 469 540 24,600 900 Climbing Fort Worth Center
07:25PM 31.6817 -94.3594 30° Northeast 464 534 25,800 1,080 Climbing Fort Worth Center
07:26PM 31.7883 -94.2850 31° Northeast 453 521 26,800 960 Climbing Fort Worth Center
07:27PM 31.8950 -94.2106 31° Northeast 446 513 27,800 900 Climbing Fort Worth Center
07:28PM 31.9997 -94.1383 30° Northeast 441 507 28,700 900 Climbing Fort Worth Center
07:29PM 32.1019 -94.0633 32° Northeast 436 502 29,700 900 Climbing Fort Worth Center
07:30PM 32.1922 -93.9964 32° Northeast 436 502 30,600 1,020 Climbing Fort Worth Center
07:31PM 32.3169 -93.9081 31° Northeast 436 502 31,800 1,080 Climbing Fort Worth Center
07:32PM 32.4214 -93.8300 32° Northeast 436 502 32,800 960 Climbing Fort Worth Center
07:33PM 32.5278 -93.7569 30° Northeast 441 507 33,800 900 Climbing Fort Worth Center
07:34PM 32.6319 -93.6811 32° Northeast 441 507 34,700 600 Climbing Fort Worth Center
07:35PM 32.7403 -93.6050 31° Northeast 441 507 35,000 120 Climbing Fort Worth Center
07:36PM 32.8506 -93.5261 31° Northeast 441 507 35,000  Level Fort Worth Center
07:37PM 32.9669 -93.4419 31° Northeast 454 522 35,000  Level Fort Worth Center
07:39PM 33.1825 -93.2886 31° Northeast 510 587 35,000  Level Memphis Center
07:40PM 33.2992 -93.2031 31° Northeast 504 580 35,000  Level Memphis Center
07:41PM 33.4139 -93.1197 31° Northeast 494 568 35,000  Level Memphis Center
07:42PM 33.5200 -93.0433 31° Northeast 494 568 35,000  Level Memphis Center
07:43PM 33.6386 -92.9569 31° Northeast 494 568 35,000  Level Memphis Center
07:44PM 33.7550 -92.8756 30° Northeast 488 562 35,000  Level Memphis Center
07:45PM 33.8717 -92.7889 32° Northeast 488 562 35,000  Level Memphis Center
07:46PM 33.9836 -92.7069 31° Northeast 482 555 35,000  Level Memphis Center
07:47PM 34.1067 -92.6100 33° Northeast 482 555 35,000  Level Memphis Center
07:48PM 34.2228 -92.5225 32° Northeast 482 555 35,000  Level Memphis Center
07:49PM 34.3369 -92.4372 32° Northeast 487 560 35,000  Level Memphis Center
07:50PM 34.4553 -92.3494 31° Northeast 487 560 35,000  Level Memphis Center
07:51PM 34.5736 -92.2589 32° Northeast 492 566 35,000  Level Memphis Center
07:52PM 34.6856 -92.1681 34° Northeast 487 560 35,000  Level Memphis Center
07:53PM 34.7831 -92.0461 46° Northeast 487 560 35,000  Level Memphis Center
07:54PM 34.8767 -91.9267 46° Northeast 487 560 35,000  Level Memphis Center
07:55PM 34.9719 -91.8017 47° Northeast 487 560 35,000  Level Memphis Center
07:56PM 35.0672 -91.6814 46° Northeast 493 567 35,000  Level Memphis Center
07:57PM 35.1581 -91.5583 48° Northeast 493 567 35,000  Level Memphis Center
07:58PM 35.2531 -91.4403 45° Northeast 493 567 35,000  Level Memphis Center
07:59PM 35.3500 -91.3167 46° Northeast 493 567 35,000  Level Memphis Center
08:00PM 35.4425 -91.1956 47° Northeast 488 562 35,000  Level Memphis Center
08:01PM 35.5311 -91.0714 49° Northeast 488 562 35,000  Level Memphis Center
08:02PM 35.6275 -90.9444 47° Northeast 488 562 35,000  Level Memphis Center
08:03PM 35.7219 -90.8250 46° Northeast 488 562 35,000  Level Memphis Center
08:04PM 35.8183 -90.6975 47° Northeast 488 562 35,000  Level Memphis Center
08:05PM 35.9103 -90.5722 48° Northeast 493 567 35,000  Level Memphis Center
08:06PM 36.0064 -90.4467 47° Northeast 493 567 35,000  Level Memphis Center
08:07PM 36.0981 -90.3211 48° Northeast 493 567 35,000  Level Memphis Center
08:08PM 36.1919 -90.1950 47° Northeast 488 562 35,000  Level Memphis Center
08:09PM 36.2856 -90.0711 47° Northeast 488 562 35,000  Level Memphis Center
08:10PM 36.3808 -89.9444 47° Northeast 488 562 35,000  Level Memphis Center
08:11PM 36.4639 -89.8306 48° Northeast 488 562 35,000  Level Memphis Center
08:12PM 36.5592 -89.7033 47° Northeast 488 562 35,000  Level Memphis Center
08:13PM 36.6544 -89.5758 47° Northeast 488 562 35,000  Level Memphis Center
08:14PM 36.7450 -89.4456 49° Northeast 488 562 35,000  Level Memphis Center
08:15PM 36.8378 -89.3175 48° Northeast 493 567 35,000  Level Memphis Center
08:16PM 36.9325 -89.1889 47° Northeast 493 567 35,000  Level Memphis Center
08:17PM 37.0231 -89.0603 49° Northeast 488 562 35,000  Level Memphis Center
08:18PM 37.1153 -88.9314 48° Northeast 488 562 35,000  Level Memphis Center
08:19PM 37.2075 -88.8022 48° Northeast 488 562 35,000  Level Memphis Center
08:20PM 37.3017 -88.6725 48° Northeast 488 562 35,000  Level Memphis Center
08:21PM 37.3894 -88.5453 49° Northeast 488 562 35,000  Level Memphis Center
08:22PM 37.4833 -88.4150 48° Northeast 488 562 35,000  Level Memphis Center
08:22PM 37.5156 -88.3553 56° Northeast 495 570 35,000  Level Indianapolis Center
08:23PM 37.6178 -88.2086 49° Northeast 498 573 35,000  Level Indianapolis Center
08:24PM 37.7100 -88.0778 48° Northeast 496 571 35,000  Level Indianapolis Center
08:25PM 37.8081 -87.9353 49° Northeast 495 570 35,000  Level Indianapolis Center
08:26PM 37.8997 -87.8042 48° Northeast 494 568 35,000  Level Indianapolis Center
08:27PM 38.0064 -87.6992 38° Northeast 485 558 35,000  Level Indianapolis Center
08:28PM 38.1228 -87.6194 28° Northeast 474 545 35,000  Level Indianapolis Center
08:29PM 38.2456 -87.5528 23° Northeast 473 544 35,000 -120 Level Indianapolis Center
08:30PM 38.3664 -87.4833 24° Northeast 470 541 34,800 -540 Descending Indianapolis Center
08:31PM 38.4831 -87.3900 32° Northeast 483 556 34,000 -420 Descending Indianapolis Center
08:32PM 38.5981 -87.2914 34° Northeast 488 562 34,000  Level Indianapolis Center
08:33PM 38.7119 -87.1956 33° Northeast 484 557 34,000  Level Indianapolis Center
08:34PM 38.8244 -87.1000 33° Northeast 482 555 34,000  Level Indianapolis Center
08:35PM 38.9381 -87.0025 34° Northeast 487 560 34,000 -180 Level Indianapolis Center
08:37PM 39.0739 -86.8864 34° Northeast 486 559 33,700 -780 Descending Indianapolis Center
08:38PM 39.1892 -86.7872 34° Northeast 483 556 32,500 -1,140 Descending Indianapolis Center
08:39PM 39.3036 -86.6878 34° Northeast 492 566 31,400 -780 Descending Indianapolis Center
08:40PM 39.4178 -86.5892 34° Northeast 490 564 31,000 -240 Descending Indianapolis Center
08:41PM 39.5314 -86.4894 34° Northeast 490 564 31,000  Level Indianapolis Center
08:42PM 39.6450 -86.3897 34° Northeast 489 563 31,000  Level Indianapolis Center
08:43PM 39.7542 -86.2914 35° Northeast 490 564 31,000  Level Indianapolis Center
08:44PM 39.8817 -86.1806 34° Northeast 492 566 31,000  Level Indianapolis Center
08:45PM 39.9958 -86.0786 34° Northeast 493 567 31,000  Level Indianapolis Center
08:46PM 40.1103 -85.9772 34° Northeast 496 571 31,000  Level Indianapolis Center
08:47PM 40.1861 -85.9092 34° Northeast 493 567 31,000 -60 Level Chicago Center
08:48PM 40.3197 -85.7897 34° Northeast 495 570 30,900 -540 Descending Chicago Center
08:49PM 40.4356 -85.6850 35° Northeast 502 578 29,900 -1,020 Descending Chicago Center
08:50PM 40.5517 -85.5817 34° Northeast 501 577 28,900 -1,020 Descending Chicago Center
08:51PM 40.6672 -85.4767 35° Northeast 503 579 27,900 -1,680 Descending Chicago Center
08:52PM 40.7672 -85.3808 36° Northeast 495 570 25,500 -2,760 Descending Chicago Center
08:53PM 40.8947 -85.2633 35° Northeast 473 544 22,300 -2,160 Descending Chicago Center
08:54PM 41.0019 -85.1625 35° Northeast 475 547 21,100 -660 Descending Chicago Center
08:55PM 41.1036 -85.0553 38° Northeast 473 544 21,000 -60 Descending Chicago Center
08:56PM 41.2053 -84.9447 39° Northeast 474 545 21,000  Level Chicago Center
08:57PM 41.3047 -84.8375 39° Northeast 468 539 21,000 -300 Level Chicago Center
08:58PM 41.4244 -84.7081 39° Northeast 465 535 20,500 -1,080 Descending Chicago Center
08:59PM 41.5081 -84.5781 49° Northeast 467 537 18,800 -1,620 Descending Chicago Center
09:00PM 41.5553 -84.5017 50° Northeast 461 531 17,800 -1,320 Descending Cleveland Center
09:01PM 41.6325 -84.3728 51° Northeast 449 517 16,700 -1,200 Descending Cleveland Center
09:01PM 41.6789 -84.2922 52° Northeast 433 498 16,000 -1,500 Descending Cleveland Center
09:02PM 41.7078 -84.2353 56° Northeast 438 504 15,200 -2,160 Descending Cleveland Center
09:03PM 41.7825 -84.1117 51° Northeast 425 489 12,900 -1,620 Descending Cleveland Center
09:04PM 41.8572 -83.9903 50° Northeast 416 479 12,000 -480 Descending Cleveland Center
09:05PM 41.9317 -83.8686 51° Northeast 418 481 12,000  Level Cleveland Center
09:05PM 42.0033 -83.7689 46° Northeast 413 475 12,000  Level Cleveland Center
09:07PM 42.0839 -83.6442 49° Northeast 408 470 12,000  Level Cleveland Center
09:08PM 42.1736 -83.5614 34° Northeast 326 375 12,000 -360 Level Cleveland Center
09:09PM 42.2375 -83.5056 33° Northeast 316 364 11,300 -1,140 Descending Cleveland Center
09:10PM 42.3142 -83.4475 29° Northeast 316 364 9,900 -1,740 Descending Cleveland Center
09:11PM 42.3925 -83.3947 26° Northeast 310 357 7,900 -1,800 Descending Cleveland Center
09:12PM 42.4708 -83.3389 28° Northeast 260 299 6,200 -1,380 Descending Cleveland Center
09:13PM 42.4433 -83.2731 119° Southeast 174 200 4,900 -1,020 Descending Cleveland Center
09:14PM 42.3914 -83.2597 169° South 164 189 4,000 -660 Descending Cleveland Center
09:15PM 42.3558 -83.2722 195° South 158 182 3,600 -660 Descending Cleveland Center
09:16PM 42.3197 -83.2986 208° Southwest 147 169 2,800 -840 Descending Cleveland Center